Aeroporto :
LOGIN :

Iscrizione | Disclaimer

   EN    FR    IT 

 










Sommario :    VFR   VFR Marginale   IFR   IFR Intensivo   IFR Molto Intensivo
Visibilità : 
Base nubi : 
>= 8 km
>= 3000ft
5 / 8 km
1000 / 3000 ft
1500m / 5 km
500 / 1000 ft
800 / 1500m
200 / 500 ft
< 800m
< 200 ft
Simboli :   Temporali  Nebbia  Neve Forte  Precipitazioni Forti  Vento > 20 kt
SIGMETs :   Varie  Temporali  Ghiacco  Turbolenza  Onda orograficha  Ceneri Vulcaniche







- Altitudine del aeroporto : 659 ft
- Codice IATA : LGG


EBLG - Liège

ULTIMO METAR :
  • 190750Z VRB02KT 9000 NSC 20/12 Q1019 NOSIG

METARs OBSOLETI :
  • 190720Z VRB02KT 9000 NSC 19/12 Q1019 NOSIG
  • 190650Z VRB02KT 9000 NSC 18/12 Q1019 NOSIG
  • 190620Z 27003KT 240V310 9000 NSC 17/12 Q1019 NOSIG
  • 190550Z VRB02KT 9000 NSC 16/12 Q1019 NOSIG
  • 190520Z VRB02KT 9000 NSC 16/12 Q1019 NOSIG
  • 190450Z 17004KT 140V220 CAVOK 15/12 Q1019 NOSIG

TAF TAF EBLG
Valido dal 19 a 06 ore il 20 a 12 ore UTC


190500Z 1906/2012 VRB03KT CAVOK
Nessun NOTAM noto per questo aeroporto.



MetMap, La meteo Aeronautica in un colpo d'occhio ! - Copyright ORBIFLY Dicembre 2007 - Disclaimer

ORBIFLY MET'MAP TEAM :

Programmazione e sviluppo : Alexandra Zaïnal
Concezione e sviluppo : Baudouin d'Aumeries
Co-Programmazione e sviluppo : Marc-Olivier Méhu
Supporto tecnico e logistico : Manuel Goepfert
Aiuto per la traduzione : Arnaldo La Scala

Contatto : metmap@orbifly.com




FONTI E CREDITI :

   NOAA